Time;durP1;ratioP1;P1;durP2;ratioP2;P2;SDS_P1;SDS_P2;PMS_P1;PMS_P2;Temp;Humidity;BMP_temperature;BMP_pressure;BME280_temperature;BME280_humidity;BME280_pressure;Samples;Min_cycle;Max_cycle;Signal;HPM_P1;HPM_P2
2020/12/22 00:01:33;;;;;;;2.77;2.50;;;6.80;99.90;;;;;;5004327;28;20347;-83
2020/12/22 00:04:00;;;;;;;3.17;2.87;;;6.70;99.90;;;;;;5012782;28;20778;-86
2020/12/22 00:06:26;;;;;;;2.60;2.40;;;6.80;99.90;;;;;;5002078;28;20670;-88
2020/12/22 00:08:53;;;;;;;5.50;2.60;;;6.80;99.90;;;;;;5002930;28;20215;-88
2020/12/22 00:11:21;;;;;;;3.27;2.30;;;6.90;99.90;;;;;;5015780;28;20199;-87
2020/12/22 00:13:47;;;;;;;4.57;2.57;;;6.90;99.90;;;;;;5012909;28;20223;-86
2020/12/22 00:16:14;;;;;;;3.83;2.20;;;7.00;99.90;;;;;;5005993;28;20273;-87
2020/12/22 00:18:41;;;;;;;3.07;2.77;;;7.00;99.90;;;;;;5008198;28;20239;-88
2020/12/22 00:21:07;;;;;;;2.60;2.27;;;7.00;99.90;;;;;;5006595;28;20209;-88
2020/12/22 00:23:34;;;;;;;3.00;2.40;;;7.00;99.90;;;;;;5009493;28;20247;-86
2020/12/22 00:26:01;;;;;;;2.67;2.10;;;7.00;99.90;;;;;;5011771;28;20199;-85
2020/12/22 00:28:28;;;;;;;3.20;2.63;;;7.10;99.90;;;;;;5012709;28;20222;-85
2020/12/22 00:30:55;;;;;;;2.90;2.70;;;7.00;99.90;;;;;;5005632;28;20311;-87
2020/12/22 00:33:21;;;;;;;2.67;2.40;;;7.00;99.90;;;;;;5009199;28;20262;-85
2020/12/22 00:35:47;;;;;;;3.40;2.30;;;7.00;99.90;;;;;;5021505;28;20302;-84
2020/12/22 00:38:14;;;;;;;2.77;2.40;;;7.00;99.90;;;;;;5015499;28;20230;-89
2020/12/22 00:40:40;;;;;;;2.50;2.30;;;7.00;99.90;;;;;;5023272;28;20199;-88
2020/12/22 00:43:07;;;;;;;3.00;2.60;;;7.00;99.90;;;;;;5012164;28;20321;-85
2020/12/22 00:45:34;;;;;;;3.10;2.67;;;7.00;99.90;;;;;;5000411;28;20696;-87
2020/12/22 00:48:00;;;;;;;3.70;2.33;;;6.90;99.90;;;;;;5007456;28;20204;-88
2020/12/22 00:50:27;;;;;;;4.00;2.60;;;7.00;99.90;;;;;;5003762;28;20631;-86
2020/12/22 00:52:53;;;;;;;2.50;2.13;;;7.00;99.90;;;;;;5012999;28;20590;-86
2020/12/22 00:55:19;;;;;;;4.63;2.53;;;7.00;99.90;;;;;;5010396;28;20227;-86
2020/12/22 00:57:46;;;;;;;2.70;2.40;;;7.00;99.90;;;;;;5012354;28;20693;-85
2020/12/22 01:00:13;;;;;;;3.47;2.53;;;7.00;99.90;;;;;;5012014;28;20755;-88
2020/12/22 01:02:41;;;;;;;3.90;2.80;;;7.00;99.90;;;;;;5010222;28;20210;-89
2020/12/22 01:05:07;;;;;;;3.17;2.20;;;7.00;99.90;;;;;;5008325;28;20229;-88
2020/12/22 01:07:34;;;;;;;2.70;2.50;;;6.90;99.90;;;;;;5001026;28;20246;-86
2020/12/22 01:10:06;;;;;;;2.43;2.10;;;7.00;99.90;;;;;;5011413;28;20298;-85
2020/12/22 01:12:32;;;;;;;2.70;2.47;;;6.90;99.90;;;;;;5012483;28;20473;-86
2020/12/22 01:14:59;;;;;;;2.37;2.13;;;7.00;99.90;;;;;;5011283;28;20254;-87
2020/12/22 01:17:25;;;;;;;3.30;3.00;;;7.00;99.90;;;;;;4999302;28;20307;-92
2020/12/22 01:19:53;;;;;;;2.90;2.47;;;7.10;99.90;;;;;;5008838;28;20773;-87
2020/12/22 01:22:19;;;;;;;2.40;2.20;;;7.20;99.90;;;;;;5010995;28;20199;-89
2020/12/22 01:24:46;;;;;;;3.47;2.40;;;7.20;99.90;;;;;;5002304;28;20314;-88
2020/12/22 01:27:12;;;;;;;2.90;2.60;;;7.10;99.90;;;;;;5011916;28;20203;-86
2020/12/22 01:29:38;;;;;;;2.63;2.43;;;7.20;99.90;;;;;;5012355;28;20242;-86
2020/12/22 01:32:05;;;;;;;2.60;2.40;;;7.20;99.90;;;;;;5009514;28;20342;-85
2020/12/22 01:34:31;;;;;;;3.53;2.73;;;7.20;99.90;;;;;;4997483;28;20699;-89
2020/12/22 01:36:58;;;;;;;3.95;2.50;;;7.30;99.90;;;;;;5007895;28;20200;-87
2020/12/22 01:39:25;;;;;;;2.80;2.60;;;7.30;99.90;;;;;;5018252;28;20234;-86
2020/12/22 01:41:51;;;;;;;2.83;2.60;;;7.30;99.90;;;;;;5012019;28;20203;-88
2020/12/22 01:44:18;;;;;;;3.83;2.90;;;7.40;99.90;;;;;;5018625;28;20305;-87
2020/12/22 01:46:47;;;;;;;2.63;2.40;;;7.40;99.90;;;;;;5010414;28;20204;-87
2020/12/22 01:49:16;;;;;;;3.50;2.63;;;7.40;99.90;;;;;;5011856;28;20305;-85
2020/12/22 01:51:43;;;;;;;2.80;2.60;;;7.40;99.90;;;;;;5009257;28;20211;-87
2020/12/22 01:54:11;;;;;;;2.53;2.27;;;7.40;99.90;;;;;;5008331;28;20252;-88
2020/12/22 01:56:38;;;;;;;2.90;2.60;;;7.50;99.90;;;;;;5009984;28;20214;-88
2020/12/22 01:59:04;;;;;;;2.53;2.28;;;7.50;99.90;;;;;;5008513;28;20223;-86
2020/12/22 02:01:32;;;;;;;2.75;2.45;;;7.50;99.90;;;;;;5013623;28;20227;-88
2020/12/22 02:04:00;;;;;;;3.50;2.42;;;7.50;99.90;;;;;;5009054;28;20219;-87
2020/12/22 02:06:27;;;;;;;4.63;2.20;;;7.50;99.90;;;;;;5003957;28;20223;-86
2020/12/22 02:08:54;;;;;;;2.85;2.33;;;7.50;99.90;;;;;;5009715;28;21106;-87
2020/12/22 02:11:25;;;;;;;2.58;2.08;;;7.60;99.90;;;;;;5011543;28;20214;-86
2020/12/22 02:13:52;;;;;;;4.13;2.42;;;7.70;99.90;;;;;;5012106;28;20229;-86
2020/12/22 02:16:19;;;;;;;2.97;2.20;;;7.70;99.90;;;;;;5019286;28;20210;-88
2020/12/22 02:18:46;;;;;;;3.85;2.60;;;7.80;99.90;;;;;;5011056;28;20233;-87
2020/12/22 02:21:13;;;;;;;4.60;3.00;;;7.70;99.90;;;;;;5013791;28;20199;-87
2020/12/22 02:23:40;;;;;;;2.60;2.17;;;7.70;99.90;;;;;;5012126;28;20242;-87
2020/12/22 02:26:07;;;;;;;2.92;2.10;;;7.70;99.90;;;;;;5015068;28;20702;-86
2020/12/22 02:28:33;;;;;;;2.42;2.08;;;7.70;99.90;;;;;;5015801;28;20228;-85
2020/12/22 02:31:00;;;;;;;2.78;2.20;;;7.70;99.90;;;;;;5014695;28;20239;-84
2020/12/22 02:33:27;;;;;;;2.30;2.10;;;7.60;99.90;;;;;;5008079;28;20215;-89
2020/12/22 02:35:53;;;;;;;2.30;2.10;;;7.70;99.90;;;;;;5002205;28;20199;-85
2020/12/22 02:38:21;;;;;;;2.00;1.90;;;7.70;99.90;;;;;;5011419;28;20210;-85
2020/12/22 02:40:47;;;;;;;2.88;1.90;;;7.70;99.90;;;;;;5018790;28;20275;-84
2020/12/22 02:43:14;;;;;;;2.30;2.10;;;7.70;99.90;;;;;;5007566;28;20291;-86
2020/12/22 02:45:42;;;;;;;2.22;2.03;;;7.70;99.90;;;;;;5013496;28;20355;-88
2020/12/22 02:48:08;;;;;;;3.03;2.42;;;7.70;99.90;;;;;;5010397;28;20208;-87
2020/12/22 02:50:35;;;;;;;3.15;2.45;;;7.70;99.90;;;;;;5020418;28;20614;-85
2020/12/22 02:53:02;;;;;;;3.10;2.47;;;7.70;99.90;;;;;;5001174;28;20227;-84
2020/12/22 02:55:29;;;;;;;2.85;2.42;;;7.90;99.90;;;;;;5008351;28;20223;-86
2020/12/22 02:57:56;;;;;;;2.92;1.80;;;7.90;99.90;;;;;;4995914;28;20206;-85
2020/12/22 03:00:23;;;;;;;2.22;2.03;;;7.80;99.90;;;;;;5007504;28;20649;-86
2020/12/22 03:02:50;;;;;;;2.08;1.60;;;7.80;99.90;;;;;;5011034;28;20742;-85
2020/12/22 03:05:16;;;;;;;2.47;2.28;;;7.80;99.90;;;;;;5011061;28;21009;-85
2020/12/22 03:07:43;;;;;;;2.88;2.20;;;7.70;99.90;;;;;;5009642;28;20207;-87
2020/12/22 03:10:10;;;;;;;1.75;1.65;;;7.60;99.90;;;;;;5007991;28;20572;-85
2020/12/22 03:12:37;;;;;;;1.80;1.70;;;7.50;99.90;;;;;;5011326;28;20223;-84
2020/12/22 03:15:07;;;;;;;2.38;1.80;;;7.50;99.90;;;;;;5013833;28;20658;-87
2020/12/22 03:17:33;;;;;;;1.90;1.80;;;7.40;99.90;;;;;;5012081;28;20199;-86
2020/12/22 03:19:59;;;;;;;2.08;1.80;;;7.40;99.90;;;;;;5006546;28;20829;-87
2020/12/22 03:22:26;;;;;;;2.15;2.00;;;7.40;99.90;;;;;;5007221;28;20222;-88
2020/12/22 03:24:52;;;;;;;3.08;2.75;;;7.40;99.90;;;;;;5010379;28;20223;-88
2020/12/22 03:27:18;;;;;;;2.00;1.90;;;7.40;99.90;;;;;;5014326;28;20302;-86
2020/12/22 03:29:46;;;;;;;2.30;2.10;;;7.30;99.90;;;;;;5020699;28;20290;-86
2020/12/22 03:32:12;;;;;;;2.67;2.47;;;7.30;99.90;;;;;;5012808;28;20309;-90
2020/12/22 03:34:38;;;;;;;2.63;2.10;;;7.30;99.90;;;;;;5010521;28;20310;-87
2020/12/22 03:37:05;;;;;;;2.33;2.13;;;7.30;99.90;;;;;;5014215;28;20207;-88
2020/12/22 03:39:31;;;;;;;2.38;2.15;;;7.30;99.90;;;;;;5015397;28;20285;-84
2020/12/22 03:41:57;;;;;;;2.67;1.90;;;7.30;99.90;;;;;;5008941;28;20630;-88
2020/12/22 03:44:24;;;;;;;2.40;2.00;;;7.40;99.90;;;;;;5009055;28;20234;-86
2020/12/22 03:46:51;;;;;;;1.55;1.45;;;7.40;99.90;;;;;;5016071;28;20293;-88
2020/12/22 03:49:18;;;;;;;2.30;2.10;;;7.50;99.90;;;;;;5016539;28;20577;-87
2020/12/22 03:51:46;;;;;;;2.45;2.25;;;7.50;99.90;;;;;;5012555;28;20221;-88
2020/12/22 03:54:13;;;;;;;2.20;1.90;;;7.60;99.90;;;;;;5015112;28;20276;-86
2020/12/22 03:56:39;;;;;;;3.47;2.05;;;7.70;99.90;;;;;;5012269;28;20215;-87
2020/12/22 03:59:06;;;;;;;3.22;2.25;;;7.70;99.90;;;;;;5010036;28;20655;-88
2020/12/22 04:01:32;;;;;;;1.95;1.85;;;7.70;99.90;;;;;;5011535;28;20199;-84
2020/12/22 04:03:59;;;;;;;1.83;1.63;;;7.80;99.90;;;;;;5014838;28;20342;-85
2020/12/22 04:06:26;;;;;;;1.90;1.80;;;7.80;99.90;;;;;;5013082;28;20268;-85
2020/12/22 04:08:53;;;;;;;1.80;1.70;;;7.80;99.90;;;;;;5009950;28;20633;-85
2020/12/22 04:11:20;;;;;;;2.25;2.03;;;7.90;99.90;;;;;;5011546;28;20753;-87
2020/12/22 04:13:47;;;;;;;2.13;1.65;;;7.90;99.90;;;;;;5012002;28;20277;-86
2020/12/22 04:16:14;;;;;;;12.02;9.93;;;7.90;99.90;;;;;;5013271;28;20290;-88
2020/12/22 04:18:41;;;;;;;1.63;1.52;;;7.90;99.90;;;;;;5015898;28;20278;-86
2020/12/22 04:21:08;;;;;;;2.28;2.00;;;8.00;99.90;;;;;;5016045;28;20274;-85
2020/12/22 04:23:35;;;;;;;1.90;1.80;;;8.00;99.90;;;;;;5013959;28;20338;-85
2020/12/22 04:26:01;;;;;;;3.30;1.80;;;8.00;99.90;;;;;;5018039;28;20218;-86
2020/12/22 04:28:27;;;;;;;2.05;1.70;;;8.10;99.90;;;;;;5008466;28;20299;-85
2020/12/22 04:30:54;;;;;;;1.67;1.58;;;8.10;99.90;;;;;;5009629;28;20294;-84
2020/12/22 04:33:20;;;;;;;1.60;1.50;;;8.10;99.90;;;;;;5007970;28;20254;-91
2020/12/22 04:35:48;;;;;;;1.48;1.08;;;8.20;99.90;;;;;;5011703;28;20241;-90
2020/12/22 04:38:15;;;;;;;1.58;1.40;;;8.30;99.90;;;;;;5014654;28;20262;-85
2020/12/22 04:40:41;;;;;;;1.48;1.38;;;8.40;99.90;;;;;;5011522;28;20252;-87
2020/12/22 04:43:08;;;;;;;1.40;1.30;;;8.60;99.90;;;;;;5011828;28;20221;-87
2020/12/22 04:45:34;;;;;;;1.10;1.00;;;8.70;99.90;;;;;;5013307;28;20207;-85
2020/12/22 04:48:01;;;;;;;1.30;0.98;;;8.80;99.90;;;;;;5011693;28;20203;-88
2020/12/22 04:50:28;;;;;;;2.33;1.15;;;8.80;99.90;;;;;;5011746;28;20282;-87
2020/12/22 04:52:55;;;;;;;1.00;1.00;;;8.90;99.90;;;;;;5009458;28;20234;-84
2020/12/22 04:55:23;;;;;;;2.10;1.00;;;9.00;99.90;;;;;;5010151;28;20235;-84
2020/12/22 04:57:51;;;;;;;1.20;1.10;;;8.90;99.90;;;;;;5004886;28;20314;-86
2020/12/22 05:00:18;;;;;;;1.10;1.10;;;8.90;99.90;;;;;;5009271;28;20237;-87
2020/12/22 05:02:45;;;;;;;2.08;1.05;;;9.00;99.90;;;;;;5007112;28;20805;-85
2020/12/22 05:05:13;;;;;;;1.45;1.20;;;9.10;99.90;;;;;;5007828;28;20587;-87
2020/12/22 05:07:40;;;;;;;1.00;0.95;;;9.00;99.90;;;;;;5011227;28;20231;-84
2020/12/22 05:10:08;;;;;;;0.90;0.90;;;9.00;99.90;;;;;;5015106;28;20230;-85
2020/12/22 05:12:37;;;;;;;1.75;1.23;;;9.10;99.90;;;;;;5009639;28;20218;-87
2020/12/22 05:15:04;;;;;;;1.20;1.10;;;9.10;99.90;;;;;;5003820;28;20302;-87
2020/12/22 05:17:31;;;;;;;2.38;1.10;;;9.00;99.90;;;;;;5009504;28;20306;-84
2020/12/22 05:19:59;;;;;;;3.05;1.40;;;9.10;99.90;;;;;;5008844;28;20314;-85
2020/12/22 05:22:26;;;;;;;1.20;0.95;;;9.20;99.90;;;;;;5008521;28;20214;-84
2020/12/22 05:24:54;;;;;;;1.95;1.10;;;9.30;99.90;;;;;;5012864;28;20708;-86
2020/12/22 05:27:21;;;;;;;1.23;1.00;;;9.40;99.90;;;;;;5013202;28;20310;-86
2020/12/22 05:29:49;;;;;;;1.27;1.17;;;9.40;99.90;;;;;;5009204;28;20223;-84
2020/12/22 05:32:18;;;;;;;1.00;1.00;;;9.40;99.90;;;;;;5009719;28;20298;-84
2020/12/22 05:34:46;;;;;;;1.20;1.10;;;9.40;99.90;;;;;;5015035;28;20242;-90
2020/12/22 05:37:14;;;;;;;1.10;1.10;;;9.40;99.90;;;;;;5021826;28;20272;-85
2020/12/22 05:39:40;;;;;;;0.90;0.85;;;9.50;99.90;;;;;;5024502;28;20260;-84
2020/12/22 05:42:16;;;;;;;0.70;0.70;;;9.60;99.90;;;;;;5017638;28;20492;-84
2020/12/22 05:44:46;;;;;;;1.50;1.40;;;9.50;99.90;;;;;;5005858;28;20235;-86
2020/12/22 05:47:16;;;;;;;1.15;1.05;;;9.70;99.80;;;;;;5007486;28;20192;-89
2020/12/22 05:49:52;;;;;;;0.80;0.80;;;9.80;99.00;;;;;;5004393;28;20223;-84
2020/12/22 05:52:22;;;;;;;1.20;0.90;;;9.80;98.80;;;;;;5004665;28;20200;-88
2020/12/22 05:54:51;;;;;;;0.90;0.90;;;9.80;98.70;;;;;;5006118;28;20713;-85
2020/12/22 05:57:22;;;;;;;1.30;1.20;;;9.90;98.30;;;;;;5004192;28;20200;-85
2020/12/22 05:59:49;;;;;;;1.20;1.10;;;9.90;98.30;;;;;;5006669;28;20299;-86
2020/12/22 06:02:27;;;;;;;1.38;1.27;;;9.90;98.20;;;;;;5006212;28;20199;-85
2020/12/22 06:04:55;;;;;;;1.73;0.98;;;10.10;96.80;;;;;;5005932;28;20280;-84
2020/12/22 06:07:22;;;;;;;1.15;1.05;;;10.20;96.10;;;;;;5014662;28;20202;-85
2020/12/22 06:09:48;;;;;;;0.98;0.90;;;10.30;95.80;;;;;;5016854;28;20227;-84
2020/12/22 06:12:15;;;;;;;1.05;0.98;;;10.40;96.10;;;;;;5018295;28;20319;-86
2020/12/22 06:14:46;;;;;;;1.10;1.00;;;10.30;95.80;;;;;;5015203;28;20235;-85
2020/12/22 06:17:13;;;;;;;1.77;0.80;;;10.20;95.80;;;;;;5025097;28;20195;-87
2020/12/22 06:19:43;;;;;;;1.20;1.10;;;10.30;95.80;;;;;;5017981;28;20377;-84
2020/12/22 06:22:11;;;;;;;1.70;0.93;;;10.40;95.80;;;;;;5017433;28;20210;-87
2020/12/22 06:24:38;;;;;;;2.25;1.00;;;10.50;95.50;;;;;;5028128;28;20224;-84
2020/12/22 06:27:05;;;;;;;0.60;0.60;;;10.40;95.50;;;;;;5019465;28;20587;-84
2020/12/22 06:29:34;;;;;;;1.00;1.00;;;10.50;95.30;;;;;;5021779;28;20223;-85
2020/12/22 06:32:23;;;;;;;0.80;0.80;;;10.50;95.00;;;;;;5018849;28;20198;-84
2020/12/22 06:34:51;;;;;;;1.08;1.08;;;10.50;94.90;;;;;;5017400;28;20239;-83
2020/12/22 06:37:21;;;;;;;1.38;0.93;;;10.60;94.60;;;;;;5019557;28;20209;-84
2020/12/22 06:39:49;;;;;;;1.77;1.20;;;10.50;95.00;;;;;;5015671;28;20233;-86
2020/12/22 06:42:42;;;;;;;0.85;0.85;;;10.40;95.20;;;;;;5020985;28;20280;-86
2020/12/22 06:45:36;;;;;;;1.23;0.90;;;10.50;95.10;;;;;;5015561;28;20223;-84
2020/12/22 06:48:02;;;;;;;0.98;0.98;;;10.50;94.80;;;;;;4983315;28;20213;-84
2020/12/22 06:50:44;;;;;;;0.90;0.90;;;10.50;95.10;;;;;;5014540;28;20314;-87
2020/12/22 06:53:35;;;;;;;1.20;1.10;;;10.40;95.20;;;;;;5016575;28;20218;-83
2020/12/22 06:56:02;;;;;;;0.70;0.70;;;10.50;94.70;;;;;;5015117;28;20286;-84
2020/12/22 06:58:40;;;;;;;1.90;1.00;;;10.50;94.70;;;;;;5021781;28;20223;-84
2020/12/22 07:01:31;;;;;;;1.05;0.93;;;10.70;94.40;;;;;;5017533;28;20307;-86
2020/12/22 07:04:18;;;;;;;0.93;0.90;;;10.70;94.20;;;;;;5011887;28;20284;-84
2020/12/22 07:06:50;;;;;;;1.00;1.00;;;10.70;93.90;;;;;;5020205;28;20254;-84
2020/12/22 07:09:18;;;;;;;1.00;1.00;;;10.70;93.80;;;;;;5018062;28;20230;-86
2020/12/22 07:11:45;;;;;;;1.20;1.10;;;10.70;94.00;;;;;;5015593;28;20622;-88
2020/12/22 07:14:15;;;;;;;0.93;0.93;;;10.70;94.00;;;;;;5015552;28;20238;-84
2020/12/22 07:16:53;;;;;;;1.25;1.00;;;10.80;93.70;;;;;;5016833;28;20206;-84
2020/12/22 07:19:28;;;;;;;0.90;0.90;;;10.80;93.70;;;;;;5018793;28;20215;-84
2020/12/22 07:21:57;;;;;;;0.80;0.80;;;10.80;93.80;;;;;;5015384;28;20209;-85
2020/12/22 07:24:25;;;;;;;1.00;1.00;;;10.70;94.20;;;;;;5018146;28;20749;-86
2020/12/22 07:26:52;;;;;;;1.30;0.90;;;10.80;93.70;;;;;;5018310;28;20506;-84
2020/12/22 07:29:19;;;;;;;0.90;0.90;;;10.80;93.50;;;;;;5017510;28;20231;-83
2020/12/22 07:31:46;;;;;;;1.17;1.10;;;11.00;93.30;;;;;;5015996;28;20286;-84
2020/12/22 07:34:12;;;;;;;0.82;0.82;;;11.00;93.30;;;;;;5015849;28;20258;-87
2020/12/22 07:36:39;;;;;;;0.75;0.75;;;11.10;92.90;;;;;;5022267;28;20199;-84
2020/12/22 07:39:18;;;;;;;0.90;0.90;;;11.20;92.50;;;;;;5016909;28;20227;-84
2020/12/22 07:41:45;;;;;;;1.63;1.25;;;11.20;92.60;;;;;;5018494;28;20221;-84
2020/12/22 07:44:13;;;;;;;0.90;0.90;;;11.20;92.40;;;;;;5019169;28;20262;-86
2020/12/22 07:46:41;;;;;;;1.10;1.00;;;11.30;92.30;;;;;;5016936;28;20270;-85
2020/12/22 07:49:09;;;;;;;0.70;0.70;;;11.30;92.10;;;;;;5013487;28;20666;-84
2020/12/22 07:51:37;;;;;;;0.70;0.70;;;11.30;92.10;;;;;;5019917;28;20211;-86
2020/12/22 07:54:05;;;;;;;1.77;0.70;;;11.40;91.80;;;;;;5015161;28;20227;-85
2020/12/22 07:56:33;;;;;;;1.67;0.80;;;11.50;91.70;;;;;;5012382;28;20203;-85
2020/12/22 07:59:15;;;;;;;1.08;0.77;;;11.50;91.50;;;;;;5016009;28;20239;-85
2020/12/22 08:01:45;;;;;;;0.80;0.80;;;11.60;91.40;;;;;;5020944;28;20629;-86
2020/12/22 08:04:21;;;;;;;0.75;0.75;;;11.60;91.30;;;;;;5011344;28;20227;-88
2020/12/22 08:06:55;;;;;;;0.77;0.77;;;11.70;91.30;;;;;;5015014;28;20646;-85
2020/12/22 08:09:23;;;;;;;3.15;2.95;;;11.80;90.70;;;;;;5003398;28;20942;-86
2020/12/22 08:12:00;;;;;;;0.73;0.73;;;11.90;90.70;;;;;;5000242;28;20210;-85
2020/12/22 08:14:30;;;;;;;1.10;1.00;;;11.90;90.70;;;;;;5002441;28;20230;-87
2020/12/22 08:17:31;;;;;;;0.75;0.68;;;11.90;90.70;;;;;;5014864;28;20204;-86
2020/12/22 08:20:01;;;;;;;0.50;0.50;;;12.00;90.70;;;;;;5011936;28;20292;-88
2020/12/22 08:22:30;;;;;;;0.60;0.60;;;12.20;90.40;;;;;;5022555;28;20183;-86
2020/12/22 08:24:57;;;;;;;0.70;0.70;;;12.30;90.40;;;;;;5006745;28;20231;-87
2020/12/22 08:27:24;;;;;;;0.68;0.68;;;12.30;89.70;;;;;;4998470;28;20677;-89
2020/12/22 08:29:51;;;;;;;1.05;1.05;;;12.20;90.00;;;;;;5003922;28;20210;-85
2020/12/22 08:32:23;;;;;;;0.90;0.90;;;12.20;90.00;;;;;;5002257;28;20224;-89
2020/12/22 08:34:52;;;;;;;1.08;0.98;;;12.20;90.00;;;;;;5008213;28;20235;-84
2020/12/22 08:37:19;;;;;;;0.90;0.88;;;12.30;89.50;;;;;;5008838;28;20222;-85
2020/12/22 08:39:46;;;;;;;1.67;1.58;;;12.40;89.30;;;;;;4998924;28;20228;-88
2020/12/22 08:42:13;;;;;;;0.98;0.98;;;12.30;90.10;;;;;;4998903;28;20191;-85
2020/12/22 08:44:49;;;;;;;1.20;1.10;;;12.30;89.90;;;;;;5005173;28;20237;-88
2020/12/22 08:47:21;;;;;;;1.30;1.20;;;12.40;89.60;;;;;;5005268;28;20282;-84
2020/12/22 08:49:48;;;;;;;1.00;1.00;;;12.40;89.50;;;;;;5005375;28;20227;-83
2020/12/22 08:52:16;;;;;;;1.30;1.20;;;12.50;88.70;;;;;;5001128;28;20234;-86
2020/12/22 08:54:43;;;;;;;1.48;1.33;;;12.50;87.50;;;;;;4998647;28;20393;-85
2020/12/22 08:57:13;;;;;;;1.17;1.05;;;12.50;87.90;;;;;;4995562;28;20210;-85
2020/12/22 08:59:40;;;;;;;1.13;0.90;;;12.40;89.30;;;;;;5000615;28;20253;-84
2020/12/22 09:02:26;;;;;;;0.85;0.85;;;12.40;88.70;;;;;;5007980;28;20221;-84
2020/12/22 09:05:10;;;;;;;1.00;1.00;;;12.50;88.20;;;;;;5012338;28;20301;-84
2020/12/22 09:07:36;;;;;;;1.10;1.10;;;12.50;87.90;;;;;;5006671;28;20218;-88
2020/12/22 09:10:07;;;;;;;1.17;1.08;;;12.70;85.80;;;;;;5006711;28;20227;-82
2020/12/22 09:12:35;;;;;;;1.23;1.13;;;12.90;85.90;;;;;;5011450;28;20204;-83
2020/12/22 09:15:03;;;;;;;0.95;0.95;;;12.90;85.40;;;;;;5013074;28;20215;-85
2020/12/22 09:17:34;;;;;;;1.10;1.10;;;12.90;85.90;;;;;;5011914;28;20198;-85
2020/12/22 09:20:01;;;;;;;1.27;1.17;;;12.90;85.40;;;;;;5015423;28;20242;-84
2020/12/22 09:22:28;;;;;;;1.25;1.15;;;12.90;84.90;;;;;;5009677;28;20285;-84
2020/12/22 09:24:56;;;;;;;1.10;1.00;;;13.00;83.60;;;;;;5005841;28;20293;-84
2020/12/22 09:27:29;;;;;;;1.20;1.10;;;12.90;84.40;;;;;;5011832;28;20580;-83
2020/12/22 09:29:55;;;;;;;0.90;0.90;;;12.90;85.40;;;;;;5009360;28;20231;-83
2020/12/22 09:32:22;;;;;;;1.15;1.00;;;12.80;85.20;;;;;;5009880;28;20638;-85
2020/12/22 09:34:49;;;;;;;1.30;1.20;;;12.90;85.60;;;;;;5008848;28;20346;-83
2020/12/22 09:37:15;;;;;;;1.10;1.10;;;12.90;84.50;;;;;;5003557;28;20277;-83
2020/12/22 09:39:42;;;;;;;1.17;1.08;;;12.90;83.90;;;;;;5016059;28;20233;-85
2020/12/22 09:42:09;;;;;;;1.90;1.20;;;13.00;84.30;;;;;;5009360;28;20191;-84
2020/12/22 09:44:39;;;;;;;1.23;1.15;;;12.90;83.60;;;;;;5010754;28;20227;-86
2020/12/22 09:47:12;;;;;;;1.30;1.20;;;12.90;83.70;;;;;;5018282;28;20310;-88
2020/12/22 09:49:45;;;;;;;1.67;1.30;;;12.90;83.90;;;;;;5010489;28;20231;-86
2020/12/22 09:56:26;;;;;;;1.20;0.75;;;12.90;83.80;;;;;;5027974;28;20288;-85
2020/12/22 10:04:51;;;;;;;1.00;1.00;;;13.00;81.80;;;;;;5061902;28;20224;-86
2020/12/22 10:07:17;;;;;;;0.80;0.80;;;13.10;81.30;;;;;;5049831;28;20197;-84
2020/12/22 10:09:43;;;;;;;1.88;1.00;;;13.20;81.20;;;;;;5057039;28;20309;-85
2020/12/22 10:12:10;;;;;;;2.60;1.30;;;13.20;80.80;;;;;;5051218;28;20194;-84
2020/12/22 10:14:36;;;;;;;1.08;0.90;;;13.20;80.50;;;;;;5052808;28;20222;-87
2020/12/22 10:17:03;;;;;;;1.15;0.88;;;13.40;79.50;;;;;;5060714;28;20261;-86
2020/12/22 10:19:34;;;;;;;2.45;1.23;;;13.30;80.30;;;;;;5059514;28;20226;-87
2020/12/22 10:22:04;;;;;;;0.80;0.80;;;13.30;80.00;;;;;;5062214;28;20255;-85
2020/12/22 10:24:30;;;;;;;1.42;1.00;;;13.20;80.60;;;;;;5055955;28;20237;-84
2020/12/22 10:26:57;;;;;;;1.00;0.80;;;13.30;80.40;;;;;;5060999;28;20288;-84
2020/12/22 10:29:23;;;;;;;0.75;0.70;;;13.30;80.30;;;;;;5060381;28;20309;-84
2020/12/22 10:35:12;;;;;;;0.80;0.70;;;13.40;79.20;;;;;;5045402;28;20310;-83
2020/12/22 10:37:39;;;;;;;1.33;0.98;;;13.50;78.80;;;;;;5046616;28;20198;-83
2020/12/22 10:40:05;;;;;;;0.68;0.65;;;13.50;79.40;;;;;;5060042;28;20224;-84
2020/12/22 10:42:32;;;;;;;1.40;1.25;;;13.40;78.60;;;;;;5056151;28;20210;-86
2020/12/22 10:44:59;;;;;;;0.75;0.75;;;13.30;78.90;;;;;;5048368;28;20252;-84
2020/12/22 10:47:27;;;;;;;4.40;1.40;;;13.30;79.10;;;;;;5055411;28;20212;-87
2020/12/22 10:49:56;;;;;;;1.27;1.10;;;13.40;78.40;;;;;;5057015;28;20227;-84
2020/12/22 10:52:22;;;;;;;1.30;1.02;;;13.50;78.00;;;;;;5051446;28;20356;-85
2020/12/22 10:54:49;;;;;;;1.35;0.93;;;13.40;78.40;;;;;;5049758;28;20264;-85
2020/12/22 10:57:15;;;;;;;1.50;1.40;;;13.40;78.70;;;;;;5050288;28;20211;-86
2020/12/22 10:59:43;;;;;;;1.17;1.08;;;13.40;78.10;;;;;;5053203;28;20253;-84
2020/12/22 11:02:09;;;;;;;1.67;1.40;;;13.40;78.30;;;;;;5053863;28;20214;-83
2020/12/22 11:04:35;;;;;;;1.50;1.10;;;13.40;77.80;;;;;;5055312;28;20224;-85
2020/12/22 11:07:06;;;;;;;2.47;1.23;;;13.40;78.20;;;;;;5054514;28;20198;-87
2020/12/22 11:09:33;;;;;;;1.55;1.00;;;13.40;77.70;;;;;;5056862;28;20221;-85
2020/12/22 11:12:00;;;;;;;4.30;0.80;;;13.40;77.60;;;;;;5053384;28;20279;-85
2020/12/22 11:14:27;;;;;;;2.75;1.10;;;13.40;77.50;;;;;;5046126;28;20311;-85
2020/12/22 11:16:53;;;;;;;2.78;1.35;;;13.50;77.00;;;;;;5046460;28;20201;-87
2020/12/22 11:19:19;;;;;;;2.15;1.13;;;13.50;76.20;;;;;;5048523;28;20221;-85
2020/12/22 11:21:46;;;;;;;2.35;1.50;;;13.50;76.20;;;;;;5048978;28;20202;-85
2020/12/22 11:24:12;;;;;;;2.78;1.13;;;13.40;76.20;;;;;;5057193;28;20691;-84
2020/12/22 11:26:39;;;;;;;0.93;0.75;;;13.50;76.20;;;;;;5058302;28;20202;-85
2020/12/22 11:29:06;;;;;;;2.55;2.35;;;13.40;76.20;;;;;;5049030;28;20218;-87
2020/12/22 11:31:33;;;;;;;0.80;0.80;;;13.30;77.50;;;;;;5052568;28;20189;-85
2020/12/22 11:33:59;;;;;;;0.80;0.80;;;13.30;79.80;;;;;;5051931;28;20229;-86
2020/12/22 11:36:26;;;;;;;0.90;0.90;;;13.10;81.60;;;;;;5048643;28;20671;-90
2020/12/22 11:38:52;;;;;;;0.80;0.80;;;13.00;82.80;;;;;;5054751;28;20596;-84
2020/12/22 11:41:23;;;;;;;1.20;1.10;;;13.00;83.50;;;;;;5049461;28;20282;-82
2020/12/22 11:43:50;;;;;;;2.25;1.10;;;13.00;84.60;;;;;;5050614;28;20260;-82
2020/12/22 11:46:17;;;;;;;1.58;0.82;;;13.00;84.90;;;;;;5053574;28;20202;-84
2020/12/22 11:48:44;;;;;;;1.10;0.70;;;12.90;85.70;;;;;;5056015;28;20278;-85
2020/12/22 11:51:15;;;;;;;0.60;0.60;;;13.00;85.80;;;;;;5052451;28;20630;-89
2020/12/22 11:53:42;;;;;;;1.10;0.95;;;12.90;86.00;;;;;;5053270;28;20226;-84
2020/12/22 11:56:11;;;;;;;1.20;1.10;;;12.90;87.50;;;;;;5051492;28;20262;-84
2020/12/22 11:58:45;;;;;;;1.90;0.70;;;12.90;87.20;;;;;;5059742;28;20236;-83
2020/12/22 12:01:12;;;;;;;0.70;0.70;;;12.90;86.40;;;;;;5058044;28;20215;-83
2020/12/22 12:03:40;;;;;;;1.20;1.10;;;13.00;84.50;;;;;;5047746;28;20247;-84
2020/12/22 12:06:09;;;;;;;0.80;0.80;;;13.10;84.50;;;;;;5044020;28;20200;-87
2020/12/22 12:08:36;;;;;;;1.15;0.98;;;13.10;84.10;;;;;;5047444;28;20712;-81
2020/12/22 12:11:03;;;;;;;0.77;0.77;;;13.20;83.20;;;;;;5044513;28;20207;-84
2020/12/22 12:13:29;;;;;;;1.05;0.98;;;13.20;83.10;;;;;;5054036;28;20237;-87
2020/12/22 12:15:56;;;;;;;0.82;0.82;;;13.40;82.00;;;;;;5058148;28;20212;-83
2020/12/22 12:18:24;;;;;;;1.70;1.17;;;13.50;79.50;;;;;;5055087;28;20206;-82
2020/12/22 12:20:51;;;;;;;0.80;0.80;;;13.70;79.20;;;;;;5051605;28;20237;-84
2020/12/22 12:23:29;;;;;;;3.63;1.02;;;13.60;79.10;;;;;;5046005;28;20203;-82
2020/12/22 12:25:56;;;;;;;1.10;1.00;;;13.60;79.80;;;;;;5057205;28;20648;-85
2020/12/22 12:28:22;;;;;;;1.38;1.13;;;13.70;79.80;;;;;;5054176;28;20615;-83
2020/12/22 12:30:50;;;;;;;1.08;1.00;;;13.80;79.00;;;;;;5054409;28;20193;-84
2020/12/22 12:33:17;;;;;;;1.20;1.20;;;13.80;79.50;;;;;;5054344;28;20324;-83
2020/12/22 12:35:43;;;;;;;1.40;1.30;;;13.60;79.20;;;;;;5047227;28;20267;-82
2020/12/22 12:38:10;;;;;;;0.80;0.80;;;13.50;79.50;;;;;;5050977;28;20800;-91
2020/12/22 12:40:37;;;;;;;2.25;2.05;;;13.60;78.30;;;;;;5055124;28;20234;-83
2020/12/22 12:43:05;;;;;;;1.40;1.30;;;13.70;77.60;;;;;;5049684;28;20201;-83
2020/12/22 12:45:31;;;;;;;0.80;0.80;;;13.70;77.40;;;;;;5052840;28;20256;-82
2020/12/22 12:47:57;;;;;;;0.88;0.77;;;13.80;77.50;;;;;;5052445;28;20229;-82
2020/12/22 12:50:24;;;;;;;0.88;0.88;;;13.90;76.50;;;;;;5055182;28;20249;-81
2020/12/22 12:52:50;;;;;;;0.95;0.77;;;14.00;76.60;;;;;;5057971;28;20197;-82
2020/12/22 12:55:17;;;;;;;1.15;0.90;;;14.00;76.60;;;;;;5056882;28;20222;-82
2020/12/22 12:57:43;;;;;;;1.02;1.00;;;14.10;76.60;;;;;;5057337;28;20688;-83
2020/12/22 13:00:17;;;;;;;0.90;0.70;;;14.10;76.60;;;;;;5054383;28;20232;-82
2020/12/22 13:02:45;;;;;;;2.25;0.70;;;14.00;76.60;;;;;;5050881;28;20700;-85
2020/12/22 13:05:11;;;;;;;0.90;0.77;;;14.00;76.60;;;;;;5057349;28;20304;-84
2020/12/22 13:07:40;;;;;;;0.98;0.90;;;13.90;76.50;;;;;;5055509;28;20194;-85
2020/12/22 13:10:07;;;;;;;0.70;0.70;;;13.90;76.50;;;;;;5056175;28;20217;-83